sensor_id;sensor_type;location;lat;lon;timestamp;temperature;humidity
52965;DHT22;42923;53.220;6.528;2022-07-17T00:00:37;10.40;99.90
52965;DHT22;42923;53.220;6.528;2022-07-17T00:03:11;10.10;99.90
52965;DHT22;42923;53.220;6.528;2022-07-17T00:05:37;10.00;99.90
52965;DHT22;42923;53.220;6.528;2022-07-17T00:08:05;10.20;99.90
52965;DHT22;42923;53.220;6.528;2022-07-17T00:10:35;9.90;99.90
52965;DHT22;42923;53.220;6.528;2022-07-17T00:13:02;9.90;99.90
52965;DHT22;42923;53.220;6.528;2022-07-17T00:15:28;9.90;99.90
52965;DHT22;42923;53.220;6.528;2022-07-17T00:17:54;10.00;99.90
52965;DHT22;42923;53.220;6.528;2022-07-17T00:20:20;9.90;99.90
52965;DHT22;42923;53.220;6.528;2022-07-17T00:22:46;9.90;99.90
52965;DHT22;42923;53.220;6.528;2022-07-17T00:25:12;9.90;99.90
52965;DHT22;42923;53.220;6.528;2022-07-17T00:27:39;9.80;99.90
52965;DHT22;42923;53.220;6.528;2022-07-17T00:30:05;9.80;99.90
52965;DHT22;42923;53.220;6.528;2022-07-17T00:32:31;9.80;99.90
52965;DHT22;42923;53.220;6.528;2022-07-17T00:34:57;9.80;99.90
52965;DHT22;42923;53.220;6.528;2022-07-17T00:37:23;9.80;99.90
52965;DHT22;42923;53.220;6.528;2022-07-17T00:39:49;9.80;99.90
52965;DHT22;42923;53.220;6.528;2022-07-17T00:42:16;9.70;99.90
52965;DHT22;42923;53.220;6.528;2022-07-17T00:44:43;9.70;99.90
52965;DHT22;42923;53.220;6.528;2022-07-17T00:47:17;9.70;99.90
52965;DHT22;42923;53.220;6.528;2022-07-17T00:49:44;9.70;99.90
52965;DHT22;42923;53.220;6.528;2022-07-17T00:52:11;9.70;99.90
52965;DHT22;42923;53.220;6.528;2022-07-17T00:54:38;9.70;99.90
52965;DHT22;42923;53.220;6.528;2022-07-17T00:57:09;9.70;99.90
52965;DHT22;42923;53.220;6.528;2022-07-17T00:59:35;10.10;99.90
52965;DHT22;42923;53.220;6.528;2022-07-17T01:02:05;9.90;99.90
52965;DHT22;42923;53.220;6.528;2022-07-17T01:04:33;9.60;99.90
52965;DHT22;42923;53.220;6.528;2022-07-17T01:07:00;9.60;99.90
52965;DHT22;42923;53.220;6.528;2022-07-17T01:09:29;9.60;99.90
52965;DHT22;42923;53.220;6.528;2022-07-17T01:11:56;9.60;99.90
52965;DHT22;42923;53.220;6.528;2022-07-17T01:14:23;9.60;99.90
52965;DHT22;42923;53.220;6.528;2022-07-17T01:16:53;9.50;99.90
52965;DHT22;42923;53.220;6.528;2022-07-17T01:19:21;9.50;99.90
52965;DHT22;42923;53.220;6.528;2022-07-17T01:21:49;9.50;99.90
52965;DHT22;42923;53.220;6.528;2022-07-17T01:24:16;9.50;99.90
52965;DHT22;42923;53.220;6.528;2022-07-17T01:26:46;9.50;99.90
52965;DHT22;42923;53.220;6.528;2022-07-17T01:29:14;9.50;99.90
52965;DHT22;42923;53.220;6.528;2022-07-17T01:31:41;9.40;99.90
52965;DHT22;42923;53.220;6.528;2022-07-17T01:34:08;9.40;99.90
52965;DHT22;42923;53.220;6.528;2022-07-17T01:36:35;9.40;99.90
52965;DHT22;42923;53.220;6.528;2022-07-17T01:39:01;9.40;99.90
52965;DHT22;42923;53.220;6.528;2022-07-17T01:41:27;9.50;99.90
52965;DHT22;42923;53.220;6.528;2022-07-17T01:43:53;9.30;99.90
52965;DHT22;42923;53.220;6.528;2022-07-17T01:46:19;9.40;99.90
52965;DHT22;42923;53.220;6.528;2022-07-17T01:48:44;10.10;99.90
52965;DHT22;42923;53.220;6.528;2022-07-17T01:51:10;9.30;99.90
52965;DHT22;42923;53.220;6.528;2022-07-17T01:53:36;9.30;99.90
52965;DHT22;42923;53.220;6.528;2022-07-17T01:56:02;9.30;99.90
52965;DHT22;42923;53.220;6.528;2022-07-17T01:58:28;9.20;99.90
52965;DHT22;42923;53.220;6.528;2022-07-17T02:00:54;9.20;99.90
52965;DHT22;42923;53.220;6.528;2022-07-17T02:03:19;9.20;99.90
52965;DHT22;42923;53.220;6.528;2022-07-17T02:05:45;9.10;99.90
52965;DHT22;42923;53.220;6.528;2022-07-17T02:08:11;9.20;99.90
52965;DHT22;42923;53.220;6.528;2022-07-17T02:10:37;9.20;99.90
52965;DHT22;42923;53.220;6.528;2022-07-17T02:13:03;9.20;99.90
52965;DHT22;42923;53.220;6.528;2022-07-17T02:15:29;9.40;99.90
52965;DHT22;42923;53.220;6.528;2022-07-17T02:17:55;9.20;99.90
52965;DHT22;42923;53.220;6.528;2022-07-17T02:20:21;9.20;99.90
52965;DHT22;42923;53.220;6.528;2022-07-17T02:22:47;9.20;99.90
52965;DHT22;42923;53.220;6.528;2022-07-17T02:25:13;9.20;99.90
52965;DHT22;42923;53.220;6.528;2022-07-17T02:27:40;9.20;99.90
52965;DHT22;42923;53.220;6.528;2022-07-17T02:30:12;9.90;99.90
52965;DHT22;42923;53.220;6.528;2022-07-17T02:32:39;9.30;99.90
52965;DHT22;42923;53.220;6.528;2022-07-17T02:35:06;9.90;99.90
52965;DHT22;42923;53.220;6.528;2022-07-17T02:37:32;9.20;99.90
52965;DHT22;42923;53.220;6.528;2022-07-17T02:39:58;9.20;99.90
52965;DHT22;42923;53.220;6.528;2022-07-17T02:42:26;9.20;99.90
52965;DHT22;42923;53.220;6.528;2022-07-17T02:44:53;9.20;99.90
52965;DHT22;42923;53.220;6.528;2022-07-17T02:47:29;9.20;99.90
52965;DHT22;42923;53.220;6.528;2022-07-17T02:49:55;9.20;99.90
52965;DHT22;42923;53.220;6.528;2022-07-17T02:52:21;9.20;99.90
52965;DHT22;42923;53.220;6.528;2022-07-17T02:54:47;9.50;99.90
52965;DHT22;42923;53.220;6.528;2022-07-17T02:57:13;9.10;99.90
52965;DHT22;42923;53.220;6.528;2022-07-17T02:59:39;9.80;99.90
52965;DHT22;42923;53.220;6.528;2022-07-17T03:02:05;9.10;99.90
52965;DHT22;42923;53.220;6.528;2022-07-17T03:04:31;9.00;99.90
52965;DHT22;42923;53.220;6.528;2022-07-17T03:06:57;9.00;99.90
52965;DHT22;42923;53.220;6.528;2022-07-17T03:09:23;9.70;99.90
52965;DHT22;42923;53.220;6.528;2022-07-17T03:11:48;9.30;99.90
52965;DHT22;42923;53.220;6.528;2022-07-17T03:14:14;8.90;99.90
52965;DHT22;42923;53.220;6.528;2022-07-17T03:16:40;8.80;99.90
52965;DHT22;42923;53.220;6.528;2022-07-17T03:19:05;8.80;99.90
52965;DHT22;42923;53.220;6.528;2022-07-17T03:21:31;9.40;99.90
52965;DHT22;42923;53.220;6.528;2022-07-17T03:23:58;8.80;99.90
52965;DHT22;42923;53.220;6.528;2022-07-17T03:26:24;8.80;99.90
52965;DHT22;42923;53.220;6.528;2022-07-17T03:28:50;8.80;99.90
52965;DHT22;42923;53.220;6.528;2022-07-17T03:31:15;9.60;99.90
52965;DHT22;42923;53.220;6.528;2022-07-17T03:33:41;8.80;99.90
52965;DHT22;42923;53.220;6.528;2022-07-17T03:36:07;8.90;99.90
52965;DHT22;42923;53.220;6.528;2022-07-17T03:38:33;8.90;99.90
52965;DHT22;42923;53.220;6.528;2022-07-17T03:40:59;9.00;99.90
52965;DHT22;42923;53.220;6.528;2022-07-17T03:43:25;9.00;99.90
52965;DHT22;42923;53.220;6.528;2022-07-17T03:45:51;9.10;99.90
52965;DHT22;42923;53.220;6.528;2022-07-17T03:48:17;9.20;99.90
52965;DHT22;42923;53.220;6.528;2022-07-17T03:50:43;10.00;99.90
52965;DHT22;42923;53.220;6.528;2022-07-17T03:53:09;9.40;99.90
52965;DHT22;42923;53.220;6.528;2022-07-17T03:55:35;9.40;99.90
52965;DHT22;42923;53.220;6.528;2022-07-17T03:58:01;9.50;99.90
52965;DHT22;42923;53.220;6.528;2022-07-17T04:00:27;9.80;99.90
52965;DHT22;42923;53.220;6.528;2022-07-17T04:02:53;10.30;99.90
52965;DHT22;42923;53.220;6.528;2022-07-17T04:05:19;9.60;99.90
52965;DHT22;42923;53.220;6.528;2022-07-17T04:07:44;9.70;99.90
52965;DHT22;42923;53.220;6.528;2022-07-17T04:10:12;9.80;99.90
52965;DHT22;42923;53.220;6.528;2022-07-17T04:12:38;9.90;99.90
52965;DHT22;42923;53.220;6.528;2022-07-17T04:15:05;9.90;99.90
52965;DHT22;42923;53.220;6.528;2022-07-17T04:17:31;10.00;99.90
52965;DHT22;42923;53.220;6.528;2022-07-17T04:19:57;10.10;99.90
52965;DHT22;42923;53.220;6.528;2022-07-17T04:22:23;10.10;99.90
52965;DHT22;42923;53.220;6.528;2022-07-17T04:24:49;10.20;99.90
52965;DHT22;42923;53.220;6.528;2022-07-17T04:27:16;10.20;99.90
52965;DHT22;42923;53.220;6.528;2022-07-17T04:29:42;10.30;99.90
52965;DHT22;42923;53.220;6.528;2022-07-17T04:32:07;10.40;99.90
52965;DHT22;42923;53.220;6.528;2022-07-17T04:34:33;10.40;99.90
52965;DHT22;42923;53.220;6.528;2022-07-17T04:37:00;10.50;99.90
52965;DHT22;42923;53.220;6.528;2022-07-17T04:39:26;11.00;99.90
52965;DHT22;42923;53.220;6.528;2022-07-17T04:41:52;10.50;99.90
52965;DHT22;42923;53.220;6.528;2022-07-17T04:44:18;11.40;99.90
52965;DHT22;42923;53.220;6.528;2022-07-17T04:46:44;11.30;99.90
52965;DHT22;42923;53.220;6.528;2022-07-17T04:49:09;10.70;99.90
52965;DHT22;42923;53.220;6.528;2022-07-17T04:51:35;10.80;99.90
52965;DHT22;42923;53.220;6.528;2022-07-17T04:54:01;10.80;99.90
52965;DHT22;42923;53.220;6.528;2022-07-17T04:56:27;10.90;99.90
52965;DHT22;42923;53.220;6.528;2022-07-17T04:58:52;10.90;99.90
52965;DHT22;42923;53.220;6.528;2022-07-17T05:01:18;11.20;99.90
52965;DHT22;42923;53.220;6.528;2022-07-17T05:03:44;10.90;99.90
52965;DHT22;42923;53.220;6.528;2022-07-17T05:06:10;11.00;99.90
52965;DHT22;42923;53.220;6.528;2022-07-17T05:08:36;11.00;99.90
52965;DHT22;42923;53.220;6.528;2022-07-17T05:11:02;11.00;99.90
52965;DHT22;42923;53.220;6.528;2022-07-17T05:13:28;11.10;99.90
52965;DHT22;42923;53.220;6.528;2022-07-17T05:15:54;11.20;99.90
52965;DHT22;42923;53.220;6.528;2022-07-17T05:18:20;11.20;99.90
52965;DHT22;42923;53.220;6.528;2022-07-17T05:20:46;11.90;99.90
52965;DHT22;42923;53.220;6.528;2022-07-17T05:23:12;11.40;99.90
52965;DHT22;42923;53.220;6.528;2022-07-17T05:25:37;11.40;99.90
52965;DHT22;42923;53.220;6.528;2022-07-17T05:28:03;11.80;99.90
52965;DHT22;42923;53.220;6.528;2022-07-17T05:30:29;11.50;99.90
52965;DHT22;42923;53.220;6.528;2022-07-17T05:32:56;11.70;99.90
52965;DHT22;42923;53.220;6.528;2022-07-17T05:35:21;12.00;99.90
52965;DHT22;42923;53.220;6.528;2022-07-17T05:37:48;12.30;99.90
52965;DHT22;42923;53.220;6.528;2022-07-17T05:40:14;12.10;99.90
52965;DHT22;42923;53.220;6.528;2022-07-17T05:42:40;12.10;99.90
52965;DHT22;42923;53.220;6.528;2022-07-17T05:45:06;12.20;99.90
52965;DHT22;42923;53.220;6.528;2022-07-17T05:47:32;12.30;99.90
52965;DHT22;42923;53.220;6.528;2022-07-17T05:49:58;12.40;99.90
52965;DHT22;42923;53.220;6.528;2022-07-17T05:52:23;12.50;99.90
52965;DHT22;42923;53.220;6.528;2022-07-17T05:54:49;12.60;99.90
52965;DHT22;42923;53.220;6.528;2022-07-17T05:57:15;12.60;99.90
52965;DHT22;42923;53.220;6.528;2022-07-17T05:59:41;12.60;99.90
52965;DHT22;42923;53.220;6.528;2022-07-17T06:02:07;12.70;99.90
52965;DHT22;42923;53.220;6.528;2022-07-17T06:04:33;12.80;99.90
52965;DHT22;42923;53.220;6.528;2022-07-17T06:06:59;13.10;99.90
52965;DHT22;42923;53.220;6.528;2022-07-17T06:09:25;13.00;99.90
52965;DHT22;42923;53.220;6.528;2022-07-17T06:11:50;13.00;99.90
52965;DHT22;42923;53.220;6.528;2022-07-17T06:14:16;13.10;99.90
52965;DHT22;42923;53.220;6.528;2022-07-17T06:16:43;13.20;99.90
52965;DHT22;42923;53.220;6.528;2022-07-17T06:19:08;13.30;99.90
52965;DHT22;42923;53.220;6.528;2022-07-17T06:21:34;13.50;99.90
52965;DHT22;42923;53.220;6.528;2022-07-17T06:24:00;13.60;99.90
52965;DHT22;42923;53.220;6.528;2022-07-17T06:26:25;14.20;99.90
52965;DHT22;42923;53.220;6.528;2022-07-17T06:28:51;14.00;99.90
52965;DHT22;42923;53.220;6.528;2022-07-17T06:31:17;14.20;99.90
52965;DHT22;42923;53.220;6.528;2022-07-17T06:33:43;14.40;99.90
52965;DHT22;42923;53.220;6.528;2022-07-17T06:36:08;14.60;99.90
52965;DHT22;42923;53.220;6.528;2022-07-17T06:38:34;15.30;99.90
52965;DHT22;42923;53.220;6.528;2022-07-17T06:41:01;15.30;99.90
52965;DHT22;42923;53.220;6.528;2022-07-17T06:43:27;15.40;99.90
52965;DHT22;42923;53.220;6.528;2022-07-17T06:45:53;15.60;99.90
52965;DHT22;42923;53.220;6.528;2022-07-17T06:48:21;15.80;99.90
52965;DHT22;42923;53.220;6.528;2022-07-17T06:50:47;15.90;99.90
52965;DHT22;42923;53.220;6.528;2022-07-17T06:53:13;16.00;99.90
52965;DHT22;42923;53.220;6.528;2022-07-17T06:55:39;16.10;99.90
52965;DHT22;42923;53.220;6.528;2022-07-17T06:58:06;16.10;99.90
52965;DHT22;42923;53.220;6.528;2022-07-17T07:00:32;16.30;99.90
52965;DHT22;42923;53.220;6.528;2022-07-17T07:02:58;16.30;99.90
52965;DHT22;42923;53.220;6.528;2022-07-17T07:05:24;16.40;99.90
52965;DHT22;42923;53.220;6.528;2022-07-17T07:07:50;16.50;99.90
52965;DHT22;42923;53.220;6.528;2022-07-17T07:10:16;16.50;99.90
52965;DHT22;42923;53.220;6.528;2022-07-17T07:12:41;16.50;99.90
52965;DHT22;42923;53.220;6.528;2022-07-17T07:15:08;16.60;99.90
52965;DHT22;42923;53.220;6.528;2022-07-17T07:17:34;16.70;99.90
52965;DHT22;42923;53.220;6.528;2022-07-17T07:20:04;16.80;99.90
52965;DHT22;42923;53.220;6.528;2022-07-17T07:22:31;16.90;99.90
52965;DHT22;42923;53.220;6.528;2022-07-17T07:24:56;17.10;99.90
52965;DHT22;42923;53.220;6.528;2022-07-17T07:27:22;17.10;99.90
52965;DHT22;42923;53.220;6.528;2022-07-17T07:29:48;17.20;99.90
52965;DHT22;42923;53.220;6.528;2022-07-17T07:32:13;17.30;99.90
52965;DHT22;42923;53.220;6.528;2022-07-17T07:34:39;17.50;99.90
52965;DHT22;42923;53.220;6.528;2022-07-17T07:37:05;17.60;99.90
52965;DHT22;42923;53.220;6.528;2022-07-17T07:39:31;18.00;99.90
52965;DHT22;42923;53.220;6.528;2022-07-17T07:41:56;18.00;99.90
52965;DHT22;42923;53.220;6.528;2022-07-17T07:44:22;18.10;99.90
52965;DHT22;42923;53.220;6.528;2022-07-17T07:46:48;18.20;99.90
52965;DHT22;42923;53.220;6.528;2022-07-17T07:49:14;18.30;99.90
52965;DHT22;42923;53.220;6.528;2022-07-17T07:51:41;18.40;99.90
52965;DHT22;42923;53.220;6.528;2022-07-17T07:54:07;18.50;99.90
52965;DHT22;42923;53.220;6.528;2022-07-17T07:56:33;18.60;99.90
52965;DHT22;42923;53.220;6.528;2022-07-17T07:58:59;18.80;99.90
52965;DHT22;42923;53.220;6.528;2022-07-17T08:01:25;18.60;99.90
52965;DHT22;42923;53.220;6.528;2022-07-17T08:03:51;18.60;99.90
52965;DHT22;42923;53.220;6.528;2022-07-17T08:06:16;18.60;99.90
52965;DHT22;42923;53.220;6.528;2022-07-17T08:08:42;18.70;99.90
52965;DHT22;42923;53.220;6.528;2022-07-17T08:11:08;18.70;99.90
52965;DHT22;42923;53.220;6.528;2022-07-17T08:13:33;18.70;99.90
52965;DHT22;42923;53.220;6.528;2022-07-17T08:15:59;18.70;99.90
52965;DHT22;42923;53.220;6.528;2022-07-17T08:18:26;18.80;99.90
52965;DHT22;42923;53.220;6.528;2022-07-17T08:20:53;18.80;99.90
52965;DHT22;42923;53.220;6.528;2022-07-17T08:23:18;18.70;99.90
52965;DHT22;42923;53.220;6.528;2022-07-17T08:25:44;18.80;99.90
52965;DHT22;42923;53.220;6.528;2022-07-17T08:28:12;18.70;99.90
52965;DHT22;42923;53.220;6.528;2022-07-17T08:30:37;18.70;99.90
52965;DHT22;42923;53.220;6.528;2022-07-17T08:33:05;18.70;99.90
52965;DHT22;42923;53.220;6.528;2022-07-17T08:35:31;18.80;99.90
52965;DHT22;42923;53.220;6.528;2022-07-17T08:37:57;18.90;99.90
52965;DHT22;42923;53.220;6.528;2022-07-17T08:40:28;18.90;99.90
52965;DHT22;42923;53.220;6.528;2022-07-17T08:42:56;18.90;99.90
52965;DHT22;42923;53.220;6.528;2022-07-17T08:45:22;18.90;99.90
52965;DHT22;42923;53.220;6.528;2022-07-17T08:47:50;18.90;99.90
52965;DHT22;42923;53.220;6.528;2022-07-17T08:50:23;19.00;99.90
52965;DHT22;42923;53.220;6.528;2022-07-17T08:52:50;19.00;99.90
52965;DHT22;42923;53.220;6.528;2022-07-17T08:55:15;19.10;99.90
52965;DHT22;42923;53.220;6.528;2022-07-17T08:57:43;19.10;99.90
52965;DHT22;42923;53.220;6.528;2022-07-17T09:00:16;19.10;99.90
52965;DHT22;42923;53.220;6.528;2022-07-17T09:03:05;19.10;99.90
52965;DHT22;42923;53.220;6.528;2022-07-17T09:05:34;19.30;99.90
52965;DHT22;42923;53.220;6.528;2022-07-17T09:08:00;19.30;99.90
52965;DHT22;42923;53.220;6.528;2022-07-17T09:10:35;19.40;99.90
52965;DHT22;42923;53.220;6.528;2022-07-17T09:13:02;19.40;99.90
52965;DHT22;42923;53.220;6.528;2022-07-17T09:15:38;19.50;99.90
52965;DHT22;42923;53.220;6.528;2022-07-17T09:18:04;19.40;99.90
52965;DHT22;42923;53.220;6.528;2022-07-17T09:20:30;19.60;99.90
52965;DHT22;42923;53.220;6.528;2022-07-17T09:23:03;19.80;99.90
52965;DHT22;42923;53.220;6.528;2022-07-17T09:28:04;20.20;99.90
52965;DHT22;42923;53.220;6.528;2022-07-17T09:30:30;20.40;99.90
52965;DHT22;42923;53.220;6.528;2022-07-17T09:32:57;20.60;99.90
52965;DHT22;42923;53.220;6.528;2022-07-17T09:35:24;20.80;99.90
52965;DHT22;42923;53.220;6.528;2022-07-17T09:37:53;21.10;99.90
52965;DHT22;42923;53.220;6.528;2022-07-17T09:40:21;21.50;99.90
52965;DHT22;42923;53.220;6.528;2022-07-17T09:43:06;21.80;99.90
52965;DHT22;42923;53.220;6.528;2022-07-17T09:45:33;22.20;99.90
52965;DHT22;42923;53.220;6.528;2022-07-17T09:47:59;22.40;99.90
52965;DHT22;42923;53.220;6.528;2022-07-17T09:50:27;22.60;99.90
52965;DHT22;42923;53.220;6.528;2022-07-17T09:52:56;22.70;99.90
52965;DHT22;42923;53.220;6.528;2022-07-17T09:55:28;22.80;99.90
52965;DHT22;42923;53.220;6.528;2022-07-17T09:57:55;22.70;99.90
52965;DHT22;42923;53.220;6.528;2022-07-17T10:00:24;22.70;99.90
52965;DHT22;42923;53.220;6.528;2022-07-17T10:02:50;22.80;99.90
52965;DHT22;42923;53.220;6.528;2022-07-17T10:05:16;22.80;99.90
52965;DHT22;42923;53.220;6.528;2022-07-17T10:07:46;22.90;99.90
52965;DHT22;42923;53.220;6.528;2022-07-17T10:10:13;23.00;99.90
52965;DHT22;42923;53.220;6.528;2022-07-17T10:12:43;23.20;99.90
52965;DHT22;42923;53.220;6.528;2022-07-17T10:15:10;23.40;99.90
52965;DHT22;42923;53.220;6.528;2022-07-17T10:17:36;23.70;99.90
52965;DHT22;42923;53.220;6.528;2022-07-17T10:20:03;23.90;99.90
52965;DHT22;42923;53.220;6.528;2022-07-17T10:22:41;24.20;99.90
52965;DHT22;42923;53.220;6.528;2022-07-17T10:25:13;24.40;99.90
52965;DHT22;42923;53.220;6.528;2022-07-17T10:27:46;24.60;99.90
52965;DHT22;42923;53.220;6.528;2022-07-17T10:30:12;24.80;99.90
52965;DHT22;42923;53.220;6.528;2022-07-17T10:32:39;24.90;99.90
52965;DHT22;42923;53.220;6.528;2022-07-17T10:35:15;25.00;99.80
52965;DHT22;42923;53.220;6.528;2022-07-17T10:37:41;25.10;97.60
52965;DHT22;42923;53.220;6.528;2022-07-17T10:42:42;25.10;93.80
52965;DHT22;42923;53.220;6.528;2022-07-17T10:45:14;25.10;94.30
52965;DHT22;42923;53.220;6.528;2022-07-17T10:50:11;25.40;99.90
52965;DHT22;42923;53.220;6.528;2022-07-17T10:52:37;25.60;98.70
52965;DHT22;42923;53.220;6.528;2022-07-17T10:55:04;25.90;95.10
52965;DHT22;42923;53.220;6.528;2022-07-17T10:57:31;26.10;92.60
52965;DHT22;42923;53.220;6.528;2022-07-17T10:59:57;26.20;90.50
52965;DHT22;42923;53.220;6.528;2022-07-17T11:02:30;26.20;90.70
52965;DHT22;42923;53.220;6.528;2022-07-17T11:05:06;26.20;87.60
52965;DHT22;42923;53.220;6.528;2022-07-17T11:07:32;26.20;85.40
52965;DHT22;42923;53.220;6.528;2022-07-17T11:09:58;26.40;87.00
52965;DHT22;42923;53.220;6.528;2022-07-17T11:12:33;26.60;88.50
52965;DHT22;42923;53.220;6.528;2022-07-17T11:15:03;26.70;90.50
52965;DHT22;42923;53.220;6.528;2022-07-17T11:17:29;27.00;90.10
52965;DHT22;42923;53.220;6.528;2022-07-17T11:19:58;27.20;84.70
52965;DHT22;42923;53.220;6.528;2022-07-17T11:22:24;27.30;80.90
52965;DHT22;42923;53.220;6.528;2022-07-17T11:24:51;27.20;80.70
52965;DHT22;42923;53.220;6.528;2022-07-17T11:27:28;27.30;79.30
52965;DHT22;42923;53.220;6.528;2022-07-17T11:29:56;27.40;76.20
52965;DHT22;42923;53.220;6.528;2022-07-17T11:32:23;27.50;79.30
52965;DHT22;42923;53.220;6.528;2022-07-17T11:34:50;27.60;78.40
52965;DHT22;42923;53.220;6.528;2022-07-17T11:37:16;27.80;80.30
52965;DHT22;42923;53.220;6.528;2022-07-17T11:39:44;27.90;79.70
52965;DHT22;42923;53.220;6.528;2022-07-17T11:42:18;28.10;80.50
52965;DHT22;42923;53.220;6.528;2022-07-17T11:44:44;28.20;79.70
52965;DHT22;42923;53.220;6.528;2022-07-17T11:47:11;28.30;78.80
52965;DHT22;42923;53.220;6.528;2022-07-17T11:49:38;28.40;76.60
52965;DHT22;42923;53.220;6.528;2022-07-17T11:52:15;28.40;72.40
52965;DHT22;42923;53.220;6.528;2022-07-17T11:54:54;28.40;73.10
52965;DHT22;42923;53.220;6.528;2022-07-17T11:57:26;28.50;71.30
52965;DHT22;42923;53.220;6.528;2022-07-17T11:59:52;28.70;72.70
52965;DHT22;42923;53.220;6.528;2022-07-17T12:02:21;28.80;73.00
52965;DHT22;42923;53.220;6.528;2022-07-17T12:04:55;29.00;69.80
52965;DHT22;42923;53.220;6.528;2022-07-17T12:07:22;29.10;70.90
52965;DHT22;42923;53.220;6.528;2022-07-17T12:09:48;29.20;69.30
52965;DHT22;42923;53.220;6.528;2022-07-17T12:14:54;29.40;68.10
52965;DHT22;42923;53.220;6.528;2022-07-17T12:17:20;29.50;70.20
52965;DHT22;42923;53.220;6.528;2022-07-17T12:19:46;29.60;67.00
52965;DHT22;42923;53.220;6.528;2022-07-17T12:22:12;29.60;66.10
52965;DHT22;42923;53.220;6.528;2022-07-17T12:24:41;29.60;67.30
52965;DHT22;42923;53.220;6.528;2022-07-17T12:27:10;29.50;66.40
52965;DHT22;42923;53.220;6.528;2022-07-17T12:29:36;29.70;67.30
52965;DHT22;42923;53.220;6.528;2022-07-17T12:34:31;30.20;66.00
52965;DHT22;42923;53.220;6.528;2022-07-17T12:36:56;30.40;66.20
52965;DHT22;42923;53.220;6.528;2022-07-17T12:39:22;30.50;65.50
52965;DHT22;42923;53.220;6.528;2022-07-17T12:41:48;30.60;64.90
52965;DHT22;42923;53.220;6.528;2022-07-17T12:44:14;30.60;65.20
52965;DHT22;42923;53.220;6.528;2022-07-17T12:46:39;30.70;64.90
52965;DHT22;42923;53.220;6.528;2022-07-17T12:49:05;30.90;62.80
52965;DHT22;42923;53.220;6.528;2022-07-17T12:51:31;30.90;61.80
52965;DHT22;42923;53.220;6.528;2022-07-17T12:53:57;31.00;62.00
52965;DHT22;42923;53.220;6.528;2022-07-17T12:56:23;31.10;61.10
52965;DHT22;42923;53.220;6.528;2022-07-17T12:58:49;31.20;59.60
52965;DHT22;42923;53.220;6.528;2022-07-17T13:01:15;31.20;60.80
52965;DHT22;42923;53.220;6.528;2022-07-17T13:03:41;31.20;61.90
52965;DHT22;42923;53.220;6.528;2022-07-17T13:06:08;31.20;61.30
52965;DHT22;42923;53.220;6.528;2022-07-17T13:08:34;31.40;60.80
52965;DHT22;42923;53.220;6.528;2022-07-17T13:11:01;31.50;60.10
52965;DHT22;42923;53.220;6.528;2022-07-17T13:13:28;31.50;59.10
52965;DHT22;42923;53.220;6.528;2022-07-17T13:15:54;31.30;57.70
52965;DHT22;42923;53.220;6.528;2022-07-17T13:18:20;30.80;58.00
52965;DHT22;42923;53.220;6.528;2022-07-17T13:20:46;30.40;58.40
52965;DHT22;42923;53.220;6.528;2022-07-17T13:23:12;30.10;59.20
52965;DHT22;42923;53.220;6.528;2022-07-17T13:25:39;30.20;61.00
52965;DHT22;42923;53.220;6.528;2022-07-17T13:28:05;30.50;61.60
52965;DHT22;42923;53.220;6.528;2022-07-17T13:30:33;30.90;60.30
52965;DHT22;42923;53.220;6.528;2022-07-17T13:32:58;31.20;59.00
52965;DHT22;42923;53.220;6.528;2022-07-17T13:35:25;31.10;58.60
52965;DHT22;42923;53.220;6.528;2022-07-17T13:37:51;31.00;58.60
52965;DHT22;42923;53.220;6.528;2022-07-17T13:40:16;30.90;58.60
52965;DHT22;42923;53.220;6.528;2022-07-17T13:42:45;31.00;59.20
52965;DHT22;42923;53.220;6.528;2022-07-17T13:45:12;31.10;58.90
52965;DHT22;42923;53.220;6.528;2022-07-17T13:47:38;31.40;59.90
52965;DHT22;42923;53.220;6.528;2022-07-17T13:50:05;31.80;60.40
52965;DHT22;42923;53.220;6.528;2022-07-17T13:52:31;32.10;57.60
52965;DHT22;42923;53.220;6.528;2022-07-17T13:54:57;32.20;57.20
52965;DHT22;42923;53.220;6.528;2022-07-17T13:57:23;32.20;57.90
52965;DHT22;42923;53.220;6.528;2022-07-17T13:59:48;32.40;57.00
52965;DHT22;42923;53.220;6.528;2022-07-17T14:02:15;32.30;55.90
52965;DHT22;42923;53.220;6.528;2022-07-17T14:04:41;32.20;57.10
52965;DHT22;42923;53.220;6.528;2022-07-17T14:07:07;32.40;56.50
52965;DHT22;42923;53.220;6.528;2022-07-17T14:09:33;32.60;56.60
52965;DHT22;42923;53.220;6.528;2022-07-17T14:11:58;32.80;56.50
52965;DHT22;42923;53.220;6.528;2022-07-17T14:14:24;33.10;57.60
52965;DHT22;42923;53.220;6.528;2022-07-17T14:16:50;33.50;58.30
52965;DHT22;42923;53.220;6.528;2022-07-17T14:19:16;33.70;56.00
52965;DHT22;42923;53.220;6.528;2022-07-17T14:21:42;33.70;56.60
52965;DHT22;42923;53.220;6.528;2022-07-17T14:24:08;33.80;56.70
52965;DHT22;42923;53.220;6.528;2022-07-17T14:26:34;33.80;54.60
52965;DHT22;42923;53.220;6.528;2022-07-17T14:29:01;33.50;53.80
52965;DHT22;42923;53.220;6.528;2022-07-17T14:31:27;32.90;54.20
52965;DHT22;42923;53.220;6.528;2022-07-17T14:33:53;32.70;55.60
52965;DHT22;42923;53.220;6.528;2022-07-17T14:36:19;32.50;56.40
52965;DHT22;42923;53.220;6.528;2022-07-17T14:38:45;32.40;56.30
52965;DHT22;42923;53.220;6.528;2022-07-17T14:41:12;32.20;56.60
52965;DHT22;42923;53.220;6.528;2022-07-17T14:43:38;32.10;56.10
52965;DHT22;42923;53.220;6.528;2022-07-17T14:46:03;32.10;56.20
52965;DHT22;42923;53.220;6.528;2022-07-17T14:48:30;31.80;56.20
52965;DHT22;42923;53.220;6.528;2022-07-17T14:50:56;31.60;57.10
52965;DHT22;42923;53.220;6.528;2022-07-17T14:53:22;31.60;57.70
52965;DHT22;42923;53.220;6.528;2022-07-17T14:55:48;31.80;58.70
52965;DHT22;42923;53.220;6.528;2022-07-17T14:58:14;32.00;58.20
52965;DHT22;42923;53.220;6.528;2022-07-17T15:00:40;32.10;56.50
52965;DHT22;42923;53.220;6.528;2022-07-17T15:03:05;32.00;56.20
52965;DHT22;42923;53.220;6.528;2022-07-17T15:05:31;31.80;57.50
52965;DHT22;42923;53.220;6.528;2022-07-17T15:07:57;31.70;56.60
52965;DHT22;42923;53.220;6.528;2022-07-17T15:10:23;31.60;57.10
52965;DHT22;42923;53.220;6.528;2022-07-17T15:12:49;31.50;56.80
52965;DHT22;42923;53.220;6.528;2022-07-17T15:15:14;31.20;57.10
52965;DHT22;42923;53.220;6.528;2022-07-17T15:17:40;31.00;57.60
52965;DHT22;42923;53.220;6.528;2022-07-17T15:20:06;30.90;57.20
52965;DHT22;42923;53.220;6.528;2022-07-17T15:22:32;30.60;56.70
52965;DHT22;42923;53.220;6.528;2022-07-17T15:24:59;30.30;57.60
52965;DHT22;42923;53.220;6.528;2022-07-17T15:27:25;30.10;59.30
52965;DHT22;42923;53.220;6.528;2022-07-17T15:29:50;30.00;60.50
52965;DHT22;42923;53.220;6.528;2022-07-17T15:32:16;30.00;60.70
52965;DHT22;42923;53.220;6.528;2022-07-17T15:34:42;30.20;59.50
52965;DHT22;42923;53.220;6.528;2022-07-17T15:37:07;30.50;58.60
52965;DHT22;42923;53.220;6.528;2022-07-17T15:39:40;30.60;57.70
52965;DHT22;42923;53.220;6.528;2022-07-17T15:42:05;30.60;57.60
52965;DHT22;42923;53.220;6.528;2022-07-17T15:44:31;30.60;57.60